Latest Weather Observations for Kadina

IDS60801

Issued at 8:35 pm CST Saturday 23 August 2014 (issued every 30 minutes, with the page automatically refreshed every 10 minutes)

About weather observations | Map of weather stations | Latest weather observations for SA | Other Formats
Station Details ID: 022050 Name: KADINA AWS Lat: -33.97 Lon: 137.66 Height: 41.14 m
Data from the previous 72 hours. | See also: Recent months at Kadina
Date/Time
CST
Temp
°C
App
Temp
°C
Dew
Point
Rel
Hum
%
Delta-T
°C
Wind Press
QNH
hPa
Press
MSL
hPa
Rain
since 9 am
mm
Dir
 
Spd
km/h
Gust
km/h
Spd
kts
Gust
kts
23/08:30pm 6.6 2.3 5.4 92 0.5 S 17 19 9 10 1028.7 - 0.0
23/08:00pm 7.5 3.0 6.3 92 0.5 S 19 19 10 10 1028.3 - 0.0
23/07:30pm 8.2 3.7 7.0 92 0.6 S 20 20 11 11 1028.0 - 0.0
23/07:00pm 8.8 5.0 7.4 91 0.7 S 17 22 9 12 1027.6 - 0.0
23/06:30pm 8.9 5.1 7.4 90 0.7 SSW 17 19 9 10 1027.3 - 0.0
23/06:00pm 10.0 6.2 7.6 85 1.1 SSW 17 19 9 10 1027.0 1026.9 0.0
23/05:30pm 12.4 8.4 8.1 75 2.1 SSW 19 20 10 11 1026.6 - 0.0
23/05:00pm 13.9 9.2 7.7 66 3.1 SSW 22 32 12 17 1026.2 - 0.0
23/04:30pm 14.8 10.1 7.6 62 3.6 SSW 22 28 12 15 1026.0 - 0.0
23/04:00pm 15.4 9.4 6.9 57 4.2 SSW 28 35 15 19 1025.8 - 0.0
23/03:30pm 15.8 10.6 7.3 57 4.2 SW 24 33 13 18 1025.6 - 0.0
23/03:00pm 15.5 10.2 8.5 63 3.5 SW 26 37 14 20 1025.5 1025.4 0.0
23/02:30pm 15.9 10.7 8.9 63 3.6 WSW 26 33 14 18 1025.5 - 0.0
23/02:00pm 16.0 10.0 8.5 61 3.8 SW 30 39 16 21 1025.3 - 0.0
23/01:30pm 15.7 9.1 7.7 59 4.0 WSW 32 41 17 22 1025.1 - 0.0
23/01:00pm 15.9 10.5 8.2 60 3.9 WSW 26 35 14 19 1025.4 - 0.0
23/12:30pm 15.5 9.2 9.0 65 3.3 WSW 32 43 17 23 1025.7 - 0.0
23/12:00pm 15.1 9.5 10.3 73 2.5 WSW 30 39 16 21 1026.0 1025.9 0.0
23/11:30am 16.0 12.2 11.2 73 2.6 WSW 22 32 12 17 1025.9 - 0.0
23/11:00am 15.2 10.8 10.4 73 2.5 WSW 24 33 13 18 1025.8 - 0.0
23/10:30am 14.9 11.8 11.5 80 1.8 W 19 26 10 14 1025.7 - 0.0
23/10:00am 14.7 11.5 11.1 79 1.9 W 19 30 10 16 1025.3 - 0.0
23/09:30am 14.6 10.9 9.6 72 2.6 WNW 19 24 10 13 1024.9 - 0.0
23/09:00am 14.9 10.0 6.7 58 4.0 NW 22 32 12 17 1024.5 1024.4 0.0
23/08:30am 14.5 10.1 7.3 62 3.5 NNW 20 26 11 14 1024.0 - 0.0
23/08:00am 12.4 8.6 7.7 73 2.3 N 17 20 9 11 1023.6 - 0.0
23/07:30am 11.6 7.5 7.9 78 1.8 N 19 20 10 11 1023.2 - 0.0
23/07:00am 11.3 7.2 7.8 79 1.7 N 19 22 10 12 1022.9 - 0.0
23/06:30am 11.4 7.6 7.7 78 1.8 NNW 17 22 9 12 1022.8 - 0.0
23/06:00am 10.7 6.8 7.2 79 1.7 N 17 20 9 11 1021.9 1021.9 0.0
23/05:30am 10.9 6.5 6.6 75 2.0 N 19 20 10 11 1021.5 - 0.0
23/05:00am 11.2 6.8 6.5 73 2.2 N 19 22 10 12 1021.2 - 0.0
23/04:30am 12.0 7.0 6.3 68 2.7 N 22 30 12 16 1020.9 - 0.0
23/04:00am 12.4 7.4 6.5 67 2.8 N 22 28 12 15 1020.7 - 0.0
23/03:30am 12.6 7.6 6.4 66 3.0 N 22 28 12 15 1020.8 - 0.0
23/03:00am 11.9 7.2 6.0 67 2.8 NNE 20 26 11 14 1021.0 1021.0 0.0
23/02:30am 11.6 7.2 5.0 64 3.0 NNE 17 20 9 11 1021.2 - 0.0
23/02:00am 11.0 6.7 5.1 67 2.7 NNE 17 19 9 10 1021.5 - 0.0
23/01:30am 10.7 6.7 4.8 67 2.7 NNE 15 20 8 11 1021.7 - 0.0
23/01:00am 10.5 5.7 4.6 67 2.7 NNE 19 20 10 11 1021.8 - 0.0
23/12:30am 10.4 5.9 4.3 66 2.7 NNE 17 20 9 11 1021.9 - 0.0
23/12:00am 10.9 6.0 4.1 63 3.0 NNE 19 24 10 13 1021.9 1021.9 0.0
 
Date/Time
CST
Temp
°C
App
Temp
°C
Dew
Point
Rel
Hum
%
Delta-T
°C
Wind Press
QNH
hPa
Press
MSL
hPa
Rain
since 9 am
mm
Dir
 
Spd
km/h
Gust
km/h
Spd
kts
Gust
kts
22/11:30pm 11.1 6.2 4.1 62 3.1 NNE 19 22 10 12 1021.9 - 0.0
22/11:00pm 10.7 5.6 4.2 64 2.9 NE 20 26 11 14 1021.8 - 0.0
22/10:30pm 9.8 4.9 4.2 68 2.5 NE 19 22 10 12 1022.3 - 0.0
22/10:00pm 9.4 4.5 4.2 70 2.3 NE 19 22 10 12 1022.3 - 0.0
22/09:30pm 10.7 5.2 4.2 64 2.9 NE 22 28 12 15 1022.3 - 0.0
22/09:00pm 11.1 5.7 4.6 64 2.9 NE 22 26 12 14 1022.4 1022.4 0.0
22/08:30pm 11.5 6.7 5.4 66 2.8 NE 20 24 11 13 1022.1 - 0.0
22/08:00pm 9.9 5.5 6.6 80 1.5 ENE 19 22 10 12 1022.1 - 0.0
22/07:30pm 8.6 4.4 5.9 83 1.2 ENE 17 19 9 10 1022.1 - 0.0
22/07:00pm 9.3 5.1 5.9 79 1.6 ENE 17 20 9 11 1021.9 - 0.0
22/06:30pm 10.3 5.9 6.6 78 1.7 ENE 19 20 10 11 1021.7 - 0.0
22/06:00pm 12.2 7.9 7.1 71 2.4 ENE 19 20 10 11 1021.6 1021.6 0.0
22/05:30pm 15.6 11.7 7.1 57 4.2 NE 17 20 9 11 1021.7 - 0.0
22/05:00pm 17.5 14.1 7.5 52 5.0 NNE 15 17 8 9 1021.6 - 0.0
22/04:30pm 19.0 14.9 6.1 43 6.4 NNE 17 24 9 13 1021.6 - 0.0
22/04:00pm 19.8 14.3 3.9 35 7.6 NNE 22 30 12 16 1021.5 - 0.0
22/03:30pm 20.2 14.5 3.0 32 8.1 N 22 30 12 16 1021.8 - 0.0
22/03:00pm 20.4 14.9 4.0 34 7.8 N 22 28 12 15 1022.0 1022.0 0.0
22/02:30pm 20.4 14.0 3.2 32 8.1 N 26 33 14 18 1022.1 - 0.0
22/02:00pm 20.5 14.5 5.3 37 7.5 N 26 33 14 18 1022.2 - 0.0
22/01:30pm 20.3 14.5 4.4 35 7.7 N 24 33 13 18 1022.7 - 0.0
22/01:00pm 20.3 14.4 5.9 39 7.2 N 26 33 14 18 1023.1 - 0.0
22/12:30pm 19.9 14.7 7.3 44 6.4 NNE 24 32 13 17 1023.6 - 0.0
22/12:00pm 19.4 14.6 7.2 45 6.2 N 22 28 12 15 1024.4 1024.3 0.0
22/11:30am 18.6 13.9 7.7 49 5.6 NNE 22 30 12 16 1024.9 - 0.0
22/11:00am 17.9 13.7 8.2 53 5.0 NNE 20 28 11 15 1025.2 - 0.0
22/10:30am 16.8 12.0 7.4 54 4.7 NNE 22 28 12 15 1025.6 - 0.0
22/10:00am 15.9 11.9 8.4 61 3.8 NNE 19 24 10 13 1025.8 - 0.0
22/09:30am 14.3 10.5 7.6 64 3.3 NNE 17 24 9 13 1025.9 - 0.0
22/09:00am 13.1 9.4 7.8 70 2.6 NNE 17 22 9 12 1026.0 1025.9 0.0
22/08:30am 10.6 6.7 6.9 78 1.8 NE 17 20 9 11 1026.0 - 0.0
22/08:00am 8.7 4.4 5.4 80 1.5 NE 17 20 9 11 1025.8 - 0.0
22/07:30am 6.6 2.2 4.6 87 0.9 ENE 17 19 9 10 1025.5 - 0.0
22/07:00am 4.9 -0.1 3.6 91 0.5 ENE 19 20 10 11 1025.0 - 0.0
22/06:30am 4.5 0.2 3.2 91 0.5 ENE 15 19 8 10 1024.8 - 0.0
22/06:00am 4.6 -0.1 3.1 90 0.6 ENE 17 19 9 10 1024.5 1024.4 0.0
22/05:30am 5.3 0.7 3.5 88 0.8 ENE 17 19 9 10 1024.1 - 0.0
22/05:00am 6.8 2.4 4.6 86 1.0 NE 17 20 9 11 1023.9 - 0.0
22/04:30am 6.7 1.9 4.5 86 1.0 NE 19 20 10 11 1023.7 - 0.0
22/04:00am 6.9 2.1 4.9 87 0.9 NE 19 20 10 11 1023.6 - 0.0
22/03:30am 7.1 2.3 4.9 86 1.0 ENE 19 20 10 11 1023.5 - 0.0
22/03:00am 7.2 2.8 5.0 86 1.0 ENE 17 20 9 11 1023.6 1023.6 0.0
22/02:30am 8.1 3.3 5.7 85 1.1 NE 20 24 11 13 1024.0 - 0.0
22/02:00am 4.6 0.4 3.6 93 0.4 E 15 17 8 9 1024.2 - 0.0
22/01:30am 4.9 0.7 3.7 92 0.5 E 15 15 8 8 1024.5 - 0.0
22/01:00am 6.0 2.7 4.5 90 0.6 E 11 13 6 7 1024.6 - 0.0
22/12:30am 7.6 3.9 6.1 90 0.7 ENE 15 19 8 10 1024.7 - 0.0
22/12:00am 7.3 3.9 6.1 92 0.5 E 13 17 7 9 1025.0 1024.9 0.0
 
Date/Time
CST
Temp
°C
App
Temp
°C
Dew
Point
Rel
Hum
%
Delta-T
°C
Wind Press
QNH
hPa
Press
MSL
hPa
Rain
since 9 am
mm
Dir
 
Spd
km/h
Gust
km/h
Spd
kts
Gust
kts
21/11:30pm 7.6 3.5 6.4 92 0.5 ENE 17 17 9 9 1025.1 - 0.0
21/11:00pm 7.8 3.8 6.6 92 0.6 ENE 17 17 9 9 1025.0 - 0.0
21/10:30pm 7.9 4.4 7.0 94 0.4 E 15 15 8 8 1025.1 - 0.0
21/10:00pm 6.9 3.1 6.0 94 0.4 E 15 17 8 9 1025.0 - 0.0
21/09:30pm 6.7 2.9 5.8 94 0.4 E 15 15 8 8 1025.0 - 0.0
21/09:00pm 7.3 4.0 6.2 93 0.5 ESE 13 15 7 8 1024.8 1024.7 0.0
21/08:30pm 8.0 4.8 6.8 92 0.6 ESE 13 15 7 8 1024.7 - 0.0
21/08:00pm 9.1 5.4 7.9 92 0.6 ESE 17 19 9 10 1024.5 - 0.0
21/07:30pm 8.9 5.5 7.7 92 0.6 ESE 15 17 8 9 1024.2 - 0.0
21/07:00pm 9.6 6.3 8.2 91 0.7 ESE 15 17 8 9 1024.0 - 0.0
21/06:30pm 11.1 7.4 9.4 89 0.9 ESE 19 22 10 12 1023.7 - 0.0
21/06:00pm 12.5 9.9 9.5 82 1.5 E 13 15 7 8 1023.5 1023.5 0.0
21/05:30pm 14.9 12.6 10.3 74 2.4 ENE 13 15 7 8 1023.2 - 0.0
21/05:00pm 16.5 14.6 10.6 68 3.1 ENE 11 15 6 8 1023.1 - 0.0
21/04:30pm 17.4 14.2 9.8 61 4.0 NE 17 20 9 11 1022.9 - 0.0
21/04:00pm 18.4 15.6 11.2 63 3.9 NE 17 24 9 13 1022.7 - 0.0
21/03:30pm 18.6 15.1 10.2 58 4.5 NNE 19 24 10 13 1022.8 - 0.0
21/03:00pm 18.6 15.9 8.8 53 5.1 NNE 13 22 7 12 1022.9 1022.9 0.0
21/02:30pm 18.0 14.7 9.6 58 4.4 NE 17 22 9 12 1023.1 - 0.0
21/02:00pm 18.4 15.4 9.2 55 4.8 N 15 24 8 13 1023.2 - 0.0
21/01:30pm 17.5 13.5 8.1 54 4.8 NNE 19 24 10 13 1023.5 - 0.0
21/01:00pm 18.4 15.9 9.7 57 4.6 NNE 13 19 7 10 1024.1 - 0.0
21/12:30pm 17.3 14.0 7.9 54 4.8 N 15 22 8 12 1024.6 - 0.0
21/12:00pm 17.2 13.7 8.6 57 4.4 N 17 24 9 13 1025.1 1025.0 0.0
21/11:30am 16.6 13.0 8.3 58 4.2 N 17 24 9 13 1025.5 - 0.0
21/11:00am 15.6 12.6 9.1 65 3.3 NNE 15 20 8 11 1025.9 - 0.0
21/10:30am 14.6 11.2 9.2 70 2.8 NE 17 22 9 12 1026.2 - 0.0
21/10:00am 13.6 10.5 8.7 72 2.5 NE 15 20 8 11 1026.3 - 0.0
21/09:30am 12.1 9.4 7.4 73 2.3 ENE 11 15 6 8 1026.5 - 0.0
21/09:00am 10.4 7.2 6.9 79 1.6 ENE 13 17 7 9 1026.7 1026.6 0.0
21/08:30am 7.6 5.0 6.1 90 0.7 E 9 13 5 7 1026.6 - 0.0
21/08:00am 5.3 2.0 4.4 94 0.4 E 11 15 6 8 1026.4 - 0.0
21/07:30am 3.6 -0.8 2.9 95 0.3 ESE 15 17 8 9 1026.3 - 0.0
21/07:00am 2.7 -1.8 2.0 95 0.3 ESE 15 17 8 9 1026.1 - 0.0
21/06:30am 3.2 -1.6 2.5 95 0.3 ESE 17 19 9 10 1025.8 - 0.0
21/06:00am 3.1 -1.4 2.4 95 0.3 ESE 15 17 8 9 1025.7 1025.6 0.0
21/05:30am 3.2 -0.5 2.3 94 0.4 E 11 13 6 7 1025.7 - 0.0
21/05:00am 3.2 -0.9 2.5 95 0.3 E 13 15 7 8 1025.5 - 0.0
21/04:30am 3.8 -0.2 2.8 93 0.4 E 13 13 7 7 1025.6 - 0.0
21/04:00am 4.5 -0.1 3.6 94 0.4 ESE 17 17 9 9 1025.4 - 0.0
21/03:30am 4.8 0.2 3.6 92 0.5 ESE 17 19 9 10 1025.4 - 0.0
21/03:00am 4.8 -0.2 3.8 93 0.4 ESE 19 20 10 11 1025.6 1025.5 0.0
21/02:30am 4.8 0.6 3.6 92 0.5 ESE 15 19 8 10 1025.9 - 0.0
21/02:00am 5.2 0.7 4.2 93 0.4 ESE 17 20 9 11 1025.9 - 0.0
21/01:30am 4.9 0.0 3.9 93 0.4 SE 19 20 10 11 1026.0 - 0.0
21/01:00am 5.1 0.2 4.1 93 0.4 SE 19 20 10 11 1026.1 - 0.0
21/12:30am 4.5 -0.1 3.6 94 0.4 SE 17 19 9 10 1026.2 - 0.0
21/12:00am 4.5 0.2 3.5 93 0.4 SE 15 17 8 9 1026.2 1026.1 0.0
 
Date/Time
CST
Temp
°C
App
Temp
°C
Dew
Point
Rel
Hum
%
Delta-T
°C
Wind Press
QNH
hPa
Press
MSL
hPa
Rain
since 9 am
mm
Dir
 
Spd
km/h
Gust
km/h
Spd
kts
Gust
kts
20/11:30pm 5.4 0.6 4.4 93 0.4 ESE 19 20 10 11 1026.2 - 0.0
20/11:00pm 5.7 1.3 4.7 93 0.4 ESE 17 19 9 10 1026.3 - 0.0
20/10:30pm 5.4 0.6 4.8 96 0.3 ESE 19 20 10 11 1026.3 - 0.0
20/10:00pm 4.4 -0.2 3.7 95 0.3 ESE 17 17 9 9 1026.4 - 0.0
20/09:30pm 4.9 0.4 4.2 95 0.3 ESE 17 17 9 9 1026.3 - 0.0
20/09:00pm 5.3 0.8 4.4 94 0.4 ESE 17 19 9 10 1026.2 1026.1 0.0

Other Formats:

Comma delimited format used in spreadsheet applications
http://www.bom.gov.au/fwo/IDS60801/IDS60801.94685.axf

JavaScript Object Notation format (JSON) in row-major order
http://www.bom.gov.au/fwo/IDS60801/IDS60801.94685.json